Terminal Aerodrome Forecast
Issued by NWS

Home | Current Version | Previous Version | Text Only | Print | Product List | Glossary On
Versions: 1 2 3 4 5 6 7 8 9 10 11 12 13
000
FTUS42 KTAE 230520
TAFVLD
TAF
KVLD 230520Z 2306/2406 13005KT P6SM FEW100
     FM230700 18007KT 6SM -TSRA BKN015CB OVC035
      TEMPO 2313/2317 VRB15G25KT 2SM +TSRA
     FM231800 23009KT 6SM -TSRA BKN025CB OVC050
     FM232000 29011KT P6SM SCT030=

USA.gov is the U.S. government's official web portal to all federal, state and local government web resources and services.